sensor_id;sensor_type;location;lat;lon;timestamp;P1;durP1;ratioP1;P2;durP2;ratioP2
38208;SDS011;24016;52.102;11.584;2023-02-11T00:01:08;37.40;;;24.83;;
38208;SDS011;24016;52.102;11.584;2023-02-11T00:03:36;39.10;;;24.77;;
38208;SDS011;24016;52.102;11.584;2023-02-11T00:06:03;34.45;;;24.35;;
38208;SDS011;24016;52.102;11.584;2023-02-11T00:08:30;36.75;;;24.75;;
38208;SDS011;24016;52.102;11.584;2023-02-11T00:10:56;35.50;;;25.17;;
38208;SDS011;24016;52.102;11.584;2023-02-11T00:13:22;38.33;;;24.80;;
38208;SDS011;24016;52.102;11.584;2023-02-11T00:15:48;34.83;;;23.50;;
38208;SDS011;24016;52.102;11.584;2023-02-11T00:18:14;36.70;;;25.08;;
38208;SDS011;24016;52.102;11.584;2023-02-11T00:20:40;34.58;;;24.35;;
38208;SDS011;24016;52.102;11.584;2023-02-11T00:23:06;37.72;;;24.15;;
38208;SDS011;24016;52.102;11.584;2023-02-11T00:25:32;38.63;;;25.00;;
38208;SDS011;24016;52.102;11.584;2023-02-11T00:27:58;35.03;;;24.25;;
38208;SDS011;24016;52.102;11.584;2023-02-11T00:30:23;34.35;;;24.27;;
38208;SDS011;24016;52.102;11.584;2023-02-11T00:32:49;37.95;;;25.08;;
38208;SDS011;24016;52.102;11.584;2023-02-11T00:35:15;35.30;;;24.67;;
38208;SDS011;24016;52.102;11.584;2023-02-11T00:37:40;32.50;;;23.95;;
38208;SDS011;24016;52.102;11.584;2023-02-11T00:40:06;34.65;;;25.73;;
38208;SDS011;24016;52.102;11.584;2023-02-11T00:42:32;33.75;;;25.20;;
38208;SDS011;24016;52.102;11.584;2023-02-11T00:44:59;34.00;;;25.20;;
38208;SDS011;24016;52.102;11.584;2023-02-11T00:47:25;41.80;;;25.65;;
38208;SDS011;24016;52.102;11.584;2023-02-11T00:49:51;37.78;;;25.48;;
38208;SDS011;24016;52.102;11.584;2023-02-11T00:52:17;41.28;;;26.65;;
38208;SDS011;24016;52.102;11.584;2023-02-11T00:54:42;37.03;;;26.60;;
38208;SDS011;24016;52.102;11.584;2023-02-11T00:57:08;35.38;;;24.80;;
38208;SDS011;24016;52.102;11.584;2023-02-11T00:59:33;39.50;;;26.42;;
38208;SDS011;24016;52.102;11.584;2023-02-11T01:01:59;35.60;;;25.58;;
38208;SDS011;24016;52.102;11.584;2023-02-11T01:04:24;38.63;;;27.65;;
38208;SDS011;24016;52.102;11.584;2023-02-11T01:06:50;42.60;;;28.00;;
38208;SDS011;24016;52.102;11.584;2023-02-11T01:09:16;41.95;;;29.15;;
38208;SDS011;24016;52.102;11.584;2023-02-11T01:11:42;38.45;;;27.27;;
38208;SDS011;24016;52.102;11.584;2023-02-11T01:14:07;42.65;;;27.63;;
38208;SDS011;24016;52.102;11.584;2023-02-11T01:16:33;40.70;;;27.88;;
38208;SDS011;24016;52.102;11.584;2023-02-11T01:18:59;41.67;;;27.65;;
38208;SDS011;24016;52.102;11.584;2023-02-11T01:21:24;40.88;;;28.55;;
38208;SDS011;24016;52.102;11.584;2023-02-11T01:23:51;39.65;;;27.55;;
38208;SDS011;24016;52.102;11.584;2023-02-11T01:26:17;40.25;;;29.08;;
38208;SDS011;24016;52.102;11.584;2023-02-11T01:28:43;45.45;;;29.52;;
38208;SDS011;24016;52.102;11.584;2023-02-11T01:31:09;43.25;;;28.88;;
38208;SDS011;24016;52.102;11.584;2023-02-11T01:33:34;39.00;;;27.58;;
38208;SDS011;24016;52.102;11.584;2023-02-11T01:36:01;42.53;;;28.38;;
38208;SDS011;24016;52.102;11.584;2023-02-11T01:38:28;44.30;;;28.67;;
38208;SDS011;24016;52.102;11.584;2023-02-11T01:40:58;38.72;;;27.48;;
38208;SDS011;24016;52.102;11.584;2023-02-11T01:43:34;40.33;;;28.90;;
38208;SDS011;24016;52.102;11.584;2023-02-11T01:48:56;46.40;;;29.35;;
38208;SDS011;24016;52.102;11.584;2023-02-11T01:51:29;42.85;;;29.23;;
38208;SDS011;24016;52.102;11.584;2023-02-11T01:54:01;42.65;;;29.42;;
38208;SDS011;24016;52.102;11.584;2023-02-11T01:56:50;45.95;;;29.80;;
38208;SDS011;24016;52.102;11.584;2023-02-11T01:59:38;43.78;;;28.73;;
38208;SDS011;24016;52.102;11.584;2023-02-11T02:02:10;43.17;;;28.75;;
38208;SDS011;24016;52.102;11.584;2023-02-11T02:04:51;45.70;;;29.08;;
38208;SDS011;24016;52.102;11.584;2023-02-11T02:07:25;43.28;;;28.38;;
38208;SDS011;24016;52.102;11.584;2023-02-11T02:09:59;47.88;;;30.83;;
38208;SDS011;24016;52.102;11.584;2023-02-11T02:17:49;46.28;;;29.45;;
38208;SDS011;24016;52.102;11.584;2023-02-11T02:20:47;43.00;;;28.73;;
38208;SDS011;24016;52.102;11.584;2023-02-11T02:23:22;43.90;;;29.83;;
38208;SDS011;24016;52.102;11.584;2023-02-11T02:29:17;48.25;;;30.30;;
38208;SDS011;24016;52.102;11.584;2023-02-11T02:37:31;48.15;;;31.13;;
38208;SDS011;24016;52.102;11.584;2023-02-11T02:40:07;46.83;;;32.92;;
38208;SDS011;24016;52.102;11.584;2023-02-11T02:42:38;42.20;;;31.15;;
38208;SDS011;24016;52.102;11.584;2023-02-11T02:45:05;45.65;;;31.48;;
38208;SDS011;24016;52.102;11.584;2023-02-11T02:47:32;51.42;;;33.42;;
38208;SDS011;24016;52.102;11.584;2023-02-11T02:49:58;47.08;;;31.75;;
38208;SDS011;24016;52.102;11.584;2023-02-11T02:52:27;49.15;;;32.85;;
38208;SDS011;24016;52.102;11.584;2023-02-11T02:55:04;51.35;;;33.78;;
38208;SDS011;24016;52.102;11.584;2023-02-11T02:57:47;49.53;;;32.33;;
38208;SDS011;24016;52.102;11.584;2023-02-11T03:00:30;51.13;;;34.00;;
38208;SDS011;24016;52.102;11.584;2023-02-11T03:03:16;46.70;;;32.70;;
38208;SDS011;24016;52.102;11.584;2023-02-11T03:06:00;48.13;;;32.45;;
38208;SDS011;24016;52.102;11.584;2023-02-11T03:08:31;47.85;;;33.47;;
38208;SDS011;24016;52.102;11.584;2023-02-11T03:11:02;53.75;;;34.65;;
38208;SDS011;24016;52.102;11.584;2023-02-11T03:13:30;52.25;;;32.85;;
38208;SDS011;24016;52.102;11.584;2023-02-11T03:15:59;51.83;;;34.05;;
38208;SDS011;24016;52.102;11.584;2023-02-11T03:18:30;54.90;;;35.05;;
38208;SDS011;24016;52.102;11.584;2023-02-11T03:20:59;54.28;;;34.92;;
38208;SDS011;24016;52.102;11.584;2023-02-11T03:23:36;55.80;;;33.03;;
38208;SDS011;24016;52.102;11.584;2023-02-11T03:26:08;50.83;;;34.63;;
38208;SDS011;24016;52.102;11.584;2023-02-11T03:31:19;50.03;;;33.75;;
38208;SDS011;24016;52.102;11.584;2023-02-11T03:34:04;50.97;;;34.10;;
38208;SDS011;24016;52.102;11.584;2023-02-11T03:36:47;52.10;;;34.00;;
38208;SDS011;24016;52.102;11.584;2023-02-11T03:39:26;55.35;;;32.63;;
38208;SDS011;24016;52.102;11.584;2023-02-11T03:41:55;47.17;;;32.72;;
38208;SDS011;24016;52.102;11.584;2023-02-11T03:44:24;52.00;;;34.67;;
38208;SDS011;24016;52.102;11.584;2023-02-11T03:46:54;47.90;;;33.20;;
38208;SDS011;24016;52.102;11.584;2023-02-11T03:49:20;52.10;;;35.00;;
38208;SDS011;24016;52.102;11.584;2023-02-11T03:51:49;52.65;;;33.55;;
38208;SDS011;24016;52.102;11.584;2023-02-11T03:54:18;49.72;;;33.20;;
38208;SDS011;24016;52.102;11.584;2023-02-11T03:56:50;51.53;;;35.28;;
38208;SDS011;24016;52.102;11.584;2023-02-11T03:59:17;53.65;;;34.55;;
38208;SDS011;24016;52.102;11.584;2023-02-11T04:01:43;49.20;;;33.97;;
38208;SDS011;24016;52.102;11.584;2023-02-11T04:04:08;51.45;;;34.13;;
38208;SDS011;24016;52.102;11.584;2023-02-11T04:06:34;51.72;;;35.28;;
38208;SDS011;24016;52.102;11.584;2023-02-11T04:08:59;52.55;;;33.90;;
38208;SDS011;24016;52.102;11.584;2023-02-11T04:11:25;52.60;;;34.63;;
38208;SDS011;24016;52.102;11.584;2023-02-11T04:13:51;53.60;;;35.17;;
38208;SDS011;24016;52.102;11.584;2023-02-11T04:16:16;45.72;;;33.03;;
38208;SDS011;24016;52.102;11.584;2023-02-11T04:18:42;48.35;;;34.33;;
38208;SDS011;24016;52.102;11.584;2023-02-11T04:21:07;51.67;;;34.92;;
38208;SDS011;24016;52.102;11.584;2023-02-11T04:23:33;52.67;;;36.75;;
38208;SDS011;24016;52.102;11.584;2023-02-11T04:25:58;58.15;;;34.70;;
38208;SDS011;24016;52.102;11.584;2023-02-11T04:28:24;51.63;;;33.67;;
38208;SDS011;24016;52.102;11.584;2023-02-11T04:30:53;52.50;;;33.55;;
38208;SDS011;24016;52.102;11.584;2023-02-11T04:33:19;52.15;;;33.42;;
38208;SDS011;24016;52.102;11.584;2023-02-11T04:35:44;51.15;;;34.53;;
38208;SDS011;24016;52.102;11.584;2023-02-11T04:38:10;52.20;;;34.10;;
38208;SDS011;24016;52.102;11.584;2023-02-11T04:40:35;53.70;;;33.67;;
38208;SDS011;24016;52.102;11.584;2023-02-11T04:43:01;51.63;;;34.00;;
38208;SDS011;24016;52.102;11.584;2023-02-11T04:45:26;53.33;;;34.95;;
38208;SDS011;24016;52.102;11.584;2023-02-11T04:47:52;52.22;;;34.13;;
38208;SDS011;24016;52.102;11.584;2023-02-11T04:50:17;52.50;;;35.53;;
38208;SDS011;24016;52.102;11.584;2023-02-11T04:52:43;49.10;;;33.97;;
38208;SDS011;24016;52.102;11.584;2023-02-11T04:55:09;49.70;;;34.08;;
38208;SDS011;24016;52.102;11.584;2023-02-11T04:57:34;46.45;;;33.15;;
38208;SDS011;24016;52.102;11.584;2023-02-11T05:00:00;51.78;;;32.40;;
38208;SDS011;24016;52.102;11.584;2023-02-11T05:02:25;49.45;;;34.03;;
38208;SDS011;24016;52.102;11.584;2023-02-11T05:04:51;50.28;;;33.50;;
38208;SDS011;24016;52.102;11.584;2023-02-11T05:07:16;50.72;;;33.45;;
38208;SDS011;24016;52.102;11.584;2023-02-11T05:09:42;48.17;;;32.72;;
38208;SDS011;24016;52.102;11.584;2023-02-11T05:12:07;50.40;;;33.60;;
38208;SDS011;24016;52.102;11.584;2023-02-11T05:14:33;50.42;;;32.30;;
38208;SDS011;24016;52.102;11.584;2023-02-11T05:16:59;50.47;;;34.13;;
38208;SDS011;24016;52.102;11.584;2023-02-11T05:19:24;47.78;;;32.35;;
38208;SDS011;24016;52.102;11.584;2023-02-11T05:21:49;48.70;;;33.00;;
38208;SDS011;24016;52.102;11.584;2023-02-11T05:24:15;48.72;;;33.50;;
38208;SDS011;24016;52.102;11.584;2023-02-11T05:26:40;48.53;;;32.25;;
38208;SDS011;24016;52.102;11.584;2023-02-11T05:29:06;49.15;;;32.03;;
38208;SDS011;24016;52.102;11.584;2023-02-11T05:31:32;50.83;;;33.30;;
38208;SDS011;24016;52.102;11.584;2023-02-11T05:33:57;46.53;;;31.30;;
38208;SDS011;24016;52.102;11.584;2023-02-11T05:36:23;48.50;;;32.42;;
38208;SDS011;24016;52.102;11.584;2023-02-11T05:38:48;45.95;;;32.83;;
38208;SDS011;24016;52.102;11.584;2023-02-11T05:41:14;46.85;;;33.42;;
38208;SDS011;24016;52.102;11.584;2023-02-11T05:43:40;49.22;;;33.53;;
38208;SDS011;24016;52.102;11.584;2023-02-11T05:46:06;46.58;;;32.00;;
38208;SDS011;24016;52.102;11.584;2023-02-11T05:48:31;50.13;;;32.08;;
38208;SDS011;24016;52.102;11.584;2023-02-11T05:50:57;48.28;;;32.47;;
38208;SDS011;24016;52.102;11.584;2023-02-11T05:53:23;43.03;;;31.20;;
38208;SDS011;24016;52.102;11.584;2023-02-11T05:55:48;44.97;;;31.85;;
38208;SDS011;24016;52.102;11.584;2023-02-11T05:58:14;47.13;;;32.40;;
38208;SDS011;24016;52.102;11.584;2023-02-11T06:00:40;48.20;;;32.25;;
38208;SDS011;24016;52.102;11.584;2023-02-11T06:03:05;44.80;;;31.02;;
38208;SDS011;24016;52.102;11.584;2023-02-11T06:05:31;48.17;;;32.10;;
38208;SDS011;24016;52.102;11.584;2023-02-11T06:07:56;43.55;;;30.65;;
38208;SDS011;24016;52.102;11.584;2023-02-11T06:10:22;45.60;;;31.30;;
38208;SDS011;24016;52.102;11.584;2023-02-11T06:12:47;45.53;;;31.23;;
38208;SDS011;24016;52.102;11.584;2023-02-11T06:15:13;46.88;;;31.90;;
38208;SDS011;24016;52.102;11.584;2023-02-11T06:17:38;41.55;;;30.92;;
38208;SDS011;24016;52.102;11.584;2023-02-11T06:20:05;46.83;;;32.72;;
38208;SDS011;24016;52.102;11.584;2023-02-11T06:22:32;45.10;;;31.05;;
38208;SDS011;24016;52.102;11.584;2023-02-11T06:24:58;41.60;;;30.45;;
38208;SDS011;24016;52.102;11.584;2023-02-11T06:27:23;42.42;;;30.38;;
38208;SDS011;24016;52.102;11.584;2023-02-11T06:29:49;45.50;;;31.50;;
38208;SDS011;24016;52.102;11.584;2023-02-11T06:32:16;43.05;;;31.15;;
38208;SDS011;24016;52.102;11.584;2023-02-11T06:34:42;43.45;;;30.73;;
38208;SDS011;24016;52.102;11.584;2023-02-11T06:37:09;40.22;;;29.58;;
38208;SDS011;24016;52.102;11.584;2023-02-11T06:39:34;46.63;;;31.13;;
38208;SDS011;24016;52.102;11.584;2023-02-11T06:42:00;43.53;;;30.08;;
38208;SDS011;24016;52.102;11.584;2023-02-11T06:44:26;39.20;;;29.40;;
38208;SDS011;24016;52.102;11.584;2023-02-11T06:46:51;42.13;;;29.50;;
38208;SDS011;24016;52.102;11.584;2023-02-11T06:49:17;38.08;;;28.40;;
38208;SDS011;24016;52.102;11.584;2023-02-11T06:51:43;37.72;;;27.45;;
38208;SDS011;24016;52.102;11.584;2023-02-11T06:54:09;38.88;;;28.10;;
38208;SDS011;24016;52.102;11.584;2023-02-11T06:56:38;38.80;;;27.05;;
38208;SDS011;24016;52.102;11.584;2023-02-11T06:59:04;36.08;;;26.92;;
38208;SDS011;24016;52.102;11.584;2023-02-11T07:01:31;38.00;;;27.20;;
38208;SDS011;24016;52.102;11.584;2023-02-11T07:03:56;35.03;;;26.95;;
38208;SDS011;24016;52.102;11.584;2023-02-11T07:06:23;37.28;;;27.60;;
38208;SDS011;24016;52.102;11.584;2023-02-11T07:08:51;36.72;;;27.40;;
38208;SDS011;24016;52.102;11.584;2023-02-11T07:11:19;37.05;;;27.85;;
38208;SDS011;24016;52.102;11.584;2023-02-11T07:13:50;41.33;;;27.40;;
38208;SDS011;24016;52.102;11.584;2023-02-11T07:16:17;34.65;;;27.27;;
38208;SDS011;24016;52.102;11.584;2023-02-11T07:18:43;35.30;;;27.10;;
38208;SDS011;24016;52.102;11.584;2023-02-11T07:21:10;35.65;;;26.30;;
38208;SDS011;24016;52.102;11.584;2023-02-11T07:23:37;39.08;;;28.23;;
38208;SDS011;24016;52.102;11.584;2023-02-11T07:26:05;35.55;;;26.27;;
38208;SDS011;24016;52.102;11.584;2023-02-11T07:28:32;37.15;;;27.73;;
38208;SDS011;24016;52.102;11.584;2023-02-11T07:30:59;32.20;;;26.15;;
38208;SDS011;24016;52.102;11.584;2023-02-11T07:33:29;37.13;;;26.92;;
38208;SDS011;24016;52.102;11.584;2023-02-11T07:35:55;35.08;;;26.23;;
38208;SDS011;24016;52.102;11.584;2023-02-11T07:38:24;34.75;;;25.75;;
38208;SDS011;24016;52.102;11.584;2023-02-11T07:40:49;39.65;;;26.88;;
38208;SDS011;24016;52.102;11.584;2023-02-11T07:43:15;35.53;;;25.95;;
38208;SDS011;24016;52.102;11.584;2023-02-11T07:45:41;33.15;;;24.88;;
38208;SDS011;24016;52.102;11.584;2023-02-11T07:48:06;33.53;;;26.17;;
38208;SDS011;24016;52.102;11.584;2023-02-11T07:50:32;32.22;;;26.15;;
38208;SDS011;24016;52.102;11.584;2023-02-11T07:52:57;36.50;;;27.20;;
38208;SDS011;24016;52.102;11.584;2023-02-11T07:55:23;37.50;;;26.15;;
38208;SDS011;24016;52.102;11.584;2023-02-11T07:57:49;35.00;;;27.13;;
38208;SDS011;24016;52.102;11.584;2023-02-11T08:00:14;36.00;;;26.05;;
38208;SDS011;24016;52.102;11.584;2023-02-11T08:02:41;33.33;;;25.98;;
38208;SDS011;24016;52.102;11.584;2023-02-11T08:05:06;35.92;;;26.38;;
38208;SDS011;24016;52.102;11.584;2023-02-11T08:07:32;33.83;;;25.33;;
38208;SDS011;24016;52.102;11.584;2023-02-11T08:09:58;34.45;;;25.85;;
38208;SDS011;24016;52.102;11.584;2023-02-11T08:12:23;35.13;;;26.33;;
38208;SDS011;24016;52.102;11.584;2023-02-11T08:14:49;36.25;;;26.52;;
38208;SDS011;24016;52.102;11.584;2023-02-11T08:17:15;34.05;;;25.98;;
38208;SDS011;24016;52.102;11.584;2023-02-11T08:19:41;38.22;;;27.27;;
38208;SDS011;24016;52.102;11.584;2023-02-11T08:22:06;38.05;;;27.85;;
38208;SDS011;24016;52.102;11.584;2023-02-11T08:24:32;38.35;;;27.00;;
38208;SDS011;24016;52.102;11.584;2023-02-11T08:26:57;37.47;;;26.92;;
38208;SDS011;24016;52.102;11.584;2023-02-11T08:29:23;39.47;;;27.55;;
38208;SDS011;24016;52.102;11.584;2023-02-11T08:31:49;35.92;;;27.02;;
38208;SDS011;24016;52.102;11.584;2023-02-11T08:34:14;37.08;;;26.80;;
38208;SDS011;24016;52.102;11.584;2023-02-11T08:36:42;37.67;;;27.05;;
38208;SDS011;24016;52.102;11.584;2023-02-11T08:39:16;39.78;;;28.02;;
38208;SDS011;24016;52.102;11.584;2023-02-11T08:41:44;41.60;;;28.63;;
38208;SDS011;24016;52.102;11.584;2023-02-11T08:44:11;39.25;;;29.25;;
38208;SDS011;24016;52.102;11.584;2023-02-11T08:46:36;41.70;;;29.10;;
38208;SDS011;24016;52.102;11.584;2023-02-11T08:49:02;40.30;;;29.83;;
38208;SDS011;24016;52.102;11.584;2023-02-11T08:51:28;41.83;;;29.15;;
38208;SDS011;24016;52.102;11.584;2023-02-11T08:53:55;43.60;;;29.58;;
38208;SDS011;24016;52.102;11.584;2023-02-11T08:56:21;44.70;;;29.73;;
38208;SDS011;24016;52.102;11.584;2023-02-11T08:58:47;47.63;;;30.30;;
38208;SDS011;24016;52.102;11.584;2023-02-11T09:01:17;45.17;;;31.30;;
38208;SDS011;24016;52.102;11.584;2023-02-11T09:03:44;51.25;;;32.03;;
38208;SDS011;24016;52.102;11.584;2023-02-11T09:06:10;47.28;;;31.25;;
38208;SDS011;24016;52.102;11.584;2023-02-11T09:08:38;43.65;;;31.15;;
38208;SDS011;24016;52.102;11.584;2023-02-11T09:11:05;42.45;;;31.60;;
38208;SDS011;24016;52.102;11.584;2023-02-11T09:13:32;46.70;;;32.30;;
38208;SDS011;24016;52.102;11.584;2023-02-11T09:15:59;43.13;;;30.98;;
38208;SDS011;24016;52.102;11.584;2023-02-11T09:18:26;47.22;;;31.02;;
38208;SDS011;24016;52.102;11.584;2023-02-11T09:20:52;43.97;;;32.13;;
38208;SDS011;24016;52.102;11.584;2023-02-11T09:23:18;42.33;;;30.95;;
38208;SDS011;24016;52.102;11.584;2023-02-11T09:25:44;44.60;;;31.45;;
38208;SDS011;24016;52.102;11.584;2023-02-11T09:28:09;46.55;;;32.97;;
38208;SDS011;24016;52.102;11.584;2023-02-11T09:30:35;44.42;;;32.10;;
38208;SDS011;24016;52.102;11.584;2023-02-11T09:33:02;47.53;;;32.72;;
38208;SDS011;24016;52.102;11.584;2023-02-11T09:35:28;46.97;;;32.67;;
38208;SDS011;24016;52.102;11.584;2023-02-11T09:37:54;45.85;;;32.28;;
38208;SDS011;24016;52.102;11.584;2023-02-11T09:40:19;46.30;;;32.47;;
38208;SDS011;24016;52.102;11.584;2023-02-11T09:45:36;46.33;;;31.48;;
38208;SDS011;24016;52.102;11.584;2023-02-11T09:48:16;42.55;;;31.60;;
38208;SDS011;24016;52.102;11.584;2023-02-11T09:50:48;46.60;;;32.03;;
38208;SDS011;24016;52.102;11.584;2023-02-11T09:53:27;39.70;;;31.08;;
38208;SDS011;24016;52.102;11.584;2023-02-11T09:55:55;42.15;;;30.98;;
38208;SDS011;24016;52.102;11.584;2023-02-11T09:58:25;43.83;;;32.38;;
38208;SDS011;24016;52.102;11.584;2023-02-11T10:06:33;41.67;;;31.10;;
38208;SDS011;24016;52.102;11.584;2023-02-11T10:12:15;49.05;;;33.05;;
38208;SDS011;24016;52.102;11.584;2023-02-11T10:20:22;43.90;;;32.20;;
38208;SDS011;24016;52.102;11.584;2023-02-11T10:22:52;44.10;;;32.50;;
38208;SDS011;24016;52.102;11.584;2023-02-11T10:25:26;48.35;;;32.20;;
38208;SDS011;24016;52.102;11.584;2023-02-11T10:27:58;47.30;;;33.63;;
38208;SDS011;24016;52.102;11.584;2023-02-11T10:30:39;46.38;;;32.53;;
38208;SDS011;24016;52.102;11.584;2023-02-11T10:33:33;46.35;;;31.95;;
38208;SDS011;24016;52.102;11.584;2023-02-11T10:36:02;46.15;;;32.10;;
38208;SDS011;24016;52.102;11.584;2023-02-11T10:38:28;47.25;;;34.15;;
38208;SDS011;24016;52.102;11.584;2023-02-11T10:40:54;49.03;;;33.17;;
38208;SDS011;24016;52.102;11.584;2023-02-11T10:43:22;44.88;;;32.53;;
38208;SDS011;24016;52.102;11.584;2023-02-11T10:45:51;42.10;;;32.00;;
38208;SDS011;24016;52.102;11.584;2023-02-11T10:48:38;43.88;;;31.23;;
38208;SDS011;24016;52.102;11.584;2023-02-11T10:51:17;42.78;;;31.52;;
38208;SDS011;24016;52.102;11.584;2023-02-11T10:54:08;46.17;;;33.08;;
38208;SDS011;24016;52.102;11.584;2023-02-11T10:56:43;44.88;;;32.95;;
38208;SDS011;24016;52.102;11.584;2023-02-11T10:59:26;56.03;;;40.00;;
38208;SDS011;24016;52.102;11.584;2023-02-11T11:02:04;43.00;;;31.75;;
38208;SDS011;24016;52.102;11.584;2023-02-11T11:04:47;49.60;;;34.83;;
38208;SDS011;24016;52.102;11.584;2023-02-11T11:07:20;48.95;;;31.92;;
38208;SDS011;24016;52.102;11.584;2023-02-11T11:09:50;42.97;;;31.40;;
38208;SDS011;24016;52.102;11.584;2023-02-11T11:15:00;45.58;;;31.70;;
38208;SDS011;24016;52.102;11.584;2023-02-11T11:17:35;45.70;;;31.27;;
38208;SDS011;24016;52.102;11.584;2023-02-11T11:25:38;43.63;;;31.27;;
38208;SDS011;24016;52.102;11.584;2023-02-11T11:28:15;43.17;;;30.95;;
38208;SDS011;24016;52.102;11.584;2023-02-11T11:30:44;41.28;;;31.65;;
38208;SDS011;24016;52.102;11.584;2023-02-11T11:33:29;43.13;;;28.55;;
38208;SDS011;24016;52.102;11.584;2023-02-11T11:38:34;36.65;;;28.20;;
38208;SDS011;24016;52.102;11.584;2023-02-11T11:46:27;40.58;;;29.27;;
38208;SDS011;24016;52.102;11.584;2023-02-11T11:49:00;37.17;;;28.50;;
38208;SDS011;24016;52.102;11.584;2023-02-11T11:51:43;38.50;;;28.42;;
38208;SDS011;24016;52.102;11.584;2023-02-11T11:54:15;39.40;;;28.13;;
38208;SDS011;24016;52.102;11.584;2023-02-11T11:56:52;37.20;;;27.15;;
38208;SDS011;24016;52.102;11.584;2023-02-11T11:59:22;36.25;;;26.38;;
38208;SDS011;24016;52.102;11.584;2023-02-11T12:01:51;33.70;;;26.50;;
38208;SDS011;24016;52.102;11.584;2023-02-11T12:07:25;38.65;;;26.83;;
38208;SDS011;24016;52.102;11.584;2023-02-11T12:12:55;32.92;;;25.80;;
38208;SDS011;24016;52.102;11.584;2023-02-11T12:15:42;31.58;;;23.92;;
38208;SDS011;24016;52.102;11.584;2023-02-11T12:21:21;34.80;;;22.10;;
38208;SDS011;24016;52.102;11.584;2023-02-11T12:28:18;28.20;;;21.83;;
38208;SDS011;24016;52.102;11.584;2023-02-11T12:33:14;26.95;;;21.55;;
38208;SDS011;24016;52.102;11.584;2023-02-11T12:36:14;27.15;;;19.83;;
38208;SDS011;24016;52.102;11.584;2023-02-11T12:39:06;30.65;;;20.42;;
38208;SDS011;24016;52.102;11.584;2023-02-11T12:42:05;25.65;;;19.20;;
38208;SDS011;24016;52.102;11.584;2023-02-11T12:45:08;24.35;;;19.27;;
38208;SDS011;24016;52.102;11.584;2023-02-11T12:53:01;24.90;;;19.15;;
38208;SDS011;24016;52.102;11.584;2023-02-11T12:55:51;28.42;;;18.85;;
38208;SDS011;24016;52.102;11.584;2023-02-11T12:58:28;23.90;;;18.15;;
38208;SDS011;24016;52.102;11.584;2023-02-11T13:01:02;25.35;;;18.30;;
38208;SDS011;24016;52.102;11.584;2023-02-11T13:03:43;28.58;;;17.80;;
38208;SDS011;24016;52.102;11.584;2023-02-11T13:06:24;23.30;;;16.80;;
38208;SDS011;24016;52.102;11.584;2023-02-11T13:09:14;24.65;;;18.23;;
38208;SDS011;24016;52.102;11.584;2023-02-11T13:11:45;26.35;;;17.90;;
38208;SDS011;24016;52.102;11.584;2023-02-11T13:16:54;23.92;;;17.83;;
38208;SDS011;24016;52.102;11.584;2023-02-11T13:19:37;24.17;;;18.25;;
38208;SDS011;24016;52.102;11.584;2023-02-11T13:25:01;23.83;;;18.15;;
38208;SDS011;24016;52.102;11.584;2023-02-11T13:27:42;24.52;;;18.55;;
38208;SDS011;24016;52.102;11.584;2023-02-11T13:37:55;24.02;;;17.17;;
38208;SDS011;24016;52.102;11.584;2023-02-11T13:40:22;22.98;;;16.63;;
38208;SDS011;24016;52.102;11.584;2023-02-11T13:42:57;20.70;;;16.20;;
38208;SDS011;24016;52.102;11.584;2023-02-11T13:45:35;19.52;;;15.60;;
38208;SDS011;24016;52.102;11.584;2023-02-11T13:48:21;21.08;;;15.65;;
38208;SDS011;24016;52.102;11.584;2023-02-11T13:50:49;19.75;;;15.40;;
38208;SDS011;24016;52.102;11.584;2023-02-11T13:53:18;23.85;;;16.65;;
38208;SDS011;24016;52.102;11.584;2023-02-11T13:55:45;19.15;;;15.60;;
38208;SDS011;24016;52.102;11.584;2023-02-11T14:08:58;19.17;;;14.38;;
38208;SDS011;24016;52.102;11.584;2023-02-11T14:19:35;19.65;;;14.55;;
38208;SDS011;24016;52.102;11.584;2023-02-11T14:22:18;17.77;;;13.50;;
38208;SDS011;24016;52.102;11.584;2023-02-11T14:27:26;18.45;;;12.77;;
38208;SDS011;24016;52.102;11.584;2023-02-11T14:35:20;17.70;;;13.85;;
38208;SDS011;24016;52.102;11.584;2023-02-11T14:40:47;15.90;;;12.35;;
38208;SDS011;24016;52.102;11.584;2023-02-11T14:43:21;16.92;;;12.82;;
38208;SDS011;24016;52.102;11.584;2023-02-11T14:45:52;15.32;;;12.05;;
38208;SDS011;24016;52.102;11.584;2023-02-11T14:48:20;18.30;;;13.07;;
38208;SDS011;24016;52.102;11.584;2023-02-11T14:50:53;15.35;;;11.75;;
38208;SDS011;24016;52.102;11.584;2023-02-11T14:53:34;18.08;;;12.88;;
38208;SDS011;24016;52.102;11.584;2023-02-11T14:56:01;17.17;;;12.63;;
38208;SDS011;24016;52.102;11.584;2023-02-11T14:58:28;16.88;;;12.63;;
38208;SDS011;24016;52.102;11.584;2023-02-11T15:01:02;17.02;;;12.50;;
38208;SDS011;24016;52.102;11.584;2023-02-11T15:03:39;15.20;;;11.85;;
38208;SDS011;24016;52.102;11.584;2023-02-11T15:09:33;16.88;;;12.52;;
38208;SDS011;24016;52.102;11.584;2023-02-11T15:11:39;16.63;;;13.48;;
38208;SDS011;24016;52.102;11.584;2023-02-11T15:14:08;18.50;;;14.05;;
38208;SDS011;24016;52.102;11.584;2023-02-11T15:16:39;18.63;;;13.95;;
38208;SDS011;24016;52.102;11.584;2023-02-11T15:19:10;17.70;;;13.73;;
38208;SDS011;24016;52.102;11.584;2023-02-11T15:21:55;20.38;;;14.93;;
38208;SDS011;24016;52.102;11.584;2023-02-11T15:24:25;19.98;;;15.32;;
38208;SDS011;24016;52.102;11.584;2023-02-11T15:29:41;20.83;;;15.35;;
38208;SDS011;24016;52.102;11.584;2023-02-11T15:34:39;20.92;;;15.73;;
38208;SDS011;24016;52.102;11.584;2023-02-11T15:37:05;22.65;;;16.73;;
38208;SDS011;24016;52.102;11.584;2023-02-11T15:39:32;23.60;;;16.85;;
38208;SDS011;24016;52.102;11.584;2023-02-11T15:47:32;22.42;;;16.92;;
38208;SDS011;24016;52.102;11.584;2023-02-11T15:49:59;24.80;;;17.13;;
38208;SDS011;24016;52.102;11.584;2023-02-11T15:52:25;24.55;;;17.08;;
38208;SDS011;24016;52.102;11.584;2023-02-11T15:54:52;23.92;;;17.77;;
38208;SDS011;24016;52.102;11.584;2023-02-11T15:57:20;25.10;;;17.33;;
38208;SDS011;24016;52.102;11.584;2023-02-11T15:59:48;25.13;;;18.15;;
38208;SDS011;24016;52.102;11.584;2023-02-11T16:02:17;24.27;;;18.00;;
38208;SDS011;24016;52.102;11.584;2023-02-11T16:04:56;26.52;;;19.45;;
38208;SDS011;24016;52.102;11.584;2023-02-11T16:07:43;24.42;;;17.95;;
38208;SDS011;24016;52.102;11.584;2023-02-11T16:13:16;28.23;;;19.02;;
38208;SDS011;24016;52.102;11.584;2023-02-11T16:15:44;27.40;;;18.98;;
38208;SDS011;24016;52.102;11.584;2023-02-11T16:20:58;27.48;;;19.55;;
38208;SDS011;24016;52.102;11.584;2023-02-11T16:23:26;27.00;;;19.05;;
38208;SDS011;24016;52.102;11.584;2023-02-11T16:26:05;26.63;;;19.35;;
38208;SDS011;24016;52.102;11.584;2023-02-11T16:28:36;28.98;;;18.98;;
38208;SDS011;24016;52.102;11.584;2023-02-11T16:31:02;32.05;;;19.80;;
38208;SDS011;24016;52.102;11.584;2023-02-11T16:33:29;26.85;;;20.20;;
38208;SDS011;24016;52.102;11.584;2023-02-11T16:35:54;26.77;;;19.83;;
38208;SDS011;24016;52.102;11.584;2023-02-11T16:38:20;29.40;;;20.92;;
38208;SDS011;24016;52.102;11.584;2023-02-11T16:40:46;30.63;;;21.13;;